createdAt,value
2022-09-26T00:01:54.728Z,11.34
2022-09-26T00:04:44.609Z,11.30
2022-09-26T00:07:33.050Z,11.27
2022-09-26T00:10:21.471Z,11.28
2022-09-26T00:13:09.922Z,11.35
2022-09-26T00:15:58.809Z,11.33
2022-09-26T00:18:49.543Z,11.34
2022-09-26T00:21:39.407Z,11.38
2022-09-26T00:24:27.928Z,11.32
2022-09-26T00:27:16.434Z,11.45
2022-09-26T00:30:05.563Z,11.49
2022-09-26T00:32:53.986Z,11.50
2022-09-26T00:35:42.483Z,11.64
2022-09-26T00:38:32.329Z,11.50
2022-09-26T00:41:20.801Z,11.40
2022-09-26T00:44:48.076Z,11.37
2022-09-26T00:47:40.720Z,11.27
2022-09-26T00:50:32.473Z,11.17
2022-09-26T00:53:25.223Z,11.16
2022-09-26T00:56:18.490Z,11.19
2022-09-26T00:59:11.188Z,11.16
2022-09-26T01:02:00.871Z,11.04
2022-09-26T01:04:49.624Z,11.16
2022-09-26T01:07:38.053Z,11.15
2022-09-26T01:10:26.701Z,11.20
2022-09-26T01:13:16.626Z,11.31
2022-09-26T01:16:05.135Z,11.46
2022-09-26T01:18:53.584Z,11.47
2022-09-26T01:22:02.994Z,11.44
2022-09-26T01:25:02.342Z,11.36
2022-09-26T01:28:07.611Z,11.37
2022-09-26T01:31:02.006Z,11.44
2022-09-26T01:33:58.282Z,11.38
2022-09-26T01:36:57.352Z,11.37
2022-09-26T01:39:53.884Z,11.40
2022-09-26T01:42:50.440Z,11.41
2022-09-26T01:45:45.825Z,11.42
2022-09-26T01:48:39.087Z,11.50
2022-09-26T01:51:30.866Z,11.50
2022-09-26T01:54:20.927Z,11.51
2022-09-26T01:57:13.795Z,11.36
2022-09-26T02:00:05.320Z,11.54
2022-09-26T02:02:56.404Z,11.45
2022-09-26T02:05:48.603Z,11.58
2022-09-26T02:08:39.551Z,11.61
2022-09-26T02:11:28.083Z,11.62
2022-09-26T02:14:19.679Z,11.48
2022-09-26T02:17:12.204Z,11.65
2022-09-26T02:20:02.579Z,11.49
2022-09-26T02:22:52.356Z,11.59
2022-09-26T02:25:40.898Z,11.56
2022-09-26T02:28:29.415Z,11.58
2022-09-26T02:31:22.034Z,11.54
2022-09-26T02:34:10.630Z,11.52
2022-09-26T02:37:01.099Z,11.58
2022-09-26T02:39:51.563Z,11.54
2022-09-26T02:42:45.662Z,11.43
2022-09-26T02:45:40.035Z,11.48
2022-09-26T02:48:38.930Z,11.37
2022-09-26T02:51:46.528Z,11.49
2022-09-26T02:54:40.663Z,11.45
2022-09-26T02:57:35.656Z,11.45
2022-09-26T03:00:26.699Z,11.38
2022-09-26T03:03:20.421Z,11.44
2022-09-26T03:06:11.188Z,11.38
2022-09-26T03:09:00.329Z,11.27
2022-09-26T03:11:49.173Z,11.09
2022-09-26T03:14:40.727Z,11.20
2022-09-26T03:17:29.394Z,11.05
2022-09-26T03:20:19.988Z,11.05
2022-09-26T03:23:08.859Z,10.95
2022-09-26T03:26:02.540Z,10.95
2022-09-26T03:28:51.845Z,10.89
2022-09-26T03:31:41.641Z,10.84
2022-09-26T03:34:30.115Z,10.58
2022-09-26T03:37:18.764Z,10.74
2022-09-26T03:40:10.290Z,10.71
2022-09-26T03:42:58.811Z,10.60
2022-09-26T03:45:47.334Z,10.75
2022-09-26T03:48:37.163Z,10.75
2022-09-26T03:51:25.996Z,10.61
2022-09-26T03:54:14.885Z,10.53
2022-09-26T03:57:03.319Z,10.42
2022-09-26T03:59:51.929Z,10.41
2022-09-26T04:02:40.421Z,10.33
2022-09-26T04:05:30.974Z,10.29
2022-09-26T04:08:19.375Z,10.23
2022-09-26T04:11:09.629Z,10.20
2022-09-26T04:13:58.055Z,10.11
2022-09-26T04:16:46.964Z,10.10
2022-09-26T04:19:35.433Z,10.09
2022-09-26T04:22:25.799Z,10.02
2022-09-26T04:25:14.334Z,9.91
2022-09-26T04:28:02.919Z,9.86
2022-09-26T04:30:51.713Z,9.80
2022-09-26T04:33:40.705Z,9.80
2022-09-26T04:36:29.165Z,9.76
2022-09-26T04:39:18.966Z,9.74
2022-09-26T04:42:07.473Z,9.67
2022-09-26T04:44:55.950Z,9.72
2022-09-26T04:47:44.383Z,9.64
2022-09-26T04:50:32.786Z,9.65
2022-09-26T04:53:21.279Z,9.58
2022-09-26T04:56:12.210Z,9.44
2022-09-26T04:59:02.175Z,9.42
2022-09-26T05:01:50.656Z,9.48
2022-09-26T05:04:39.139Z,9.41
2022-09-26T05:07:27.993Z,9.25
2022-09-26T05:10:16.738Z,9.37
2022-09-26T05:13:07.854Z,9.18
2022-09-26T05:15:56.753Z,9.15
2022-09-26T05:18:45.366Z,9.24
2022-09-26T05:21:33.791Z,9.21
2022-09-26T05:24:39.615Z,9.20
2022-09-26T05:27:28.026Z,9.17
2022-09-26T05:30:18.025Z,9.22
2022-09-26T05:33:06.456Z,9.15
2022-09-26T05:35:54.873Z,9.22
2022-09-26T05:38:43.295Z,9.14
2022-09-26T05:41:31.507Z,9.21
2022-09-26T05:44:20.080Z,9.36
2022-09-26T05:47:09.933Z,9.44
2022-09-26T05:49:58.389Z,9.57
2022-09-26T05:52:46.876Z,9.46
2022-09-26T05:55:35.307Z,9.88
2022-09-26T05:58:23.794Z,9.98
2022-09-26T06:01:13.722Z,10.17
2022-09-26T06:04:03.793Z,10.44
2022-09-26T06:06:52.261Z,10.68
2022-09-26T06:09:40.659Z,10.96
2022-09-26T06:12:29.121Z,11.29
2022-09-26T06:15:17.883Z,11.59
2022-09-26T06:18:06.452Z,11.77
2022-09-26T06:20:56.236Z,11.76
2022-09-26T06:23:45.092Z,11.98
2022-09-26T06:26:33.517Z,12.24
2022-09-26T06:29:21.955Z,12.43
2022-09-26T06:32:10.448Z,12.59
2022-09-26T06:34:58.928Z,12.78
2022-09-26T06:37:48.781Z,12.87
2022-09-26T06:40:37.473Z,12.72
2022-09-26T06:43:26.168Z,13.13
2022-09-26T06:46:14.980Z,13.28
2022-09-26T06:49:03.537Z,13.37
2022-09-26T06:51:51.992Z,13.30
2022-09-26T06:54:42.128Z,13.01
2022-09-26T06:57:31.825Z,12.98
2022-09-26T07:00:20.379Z,12.91
2022-09-26T07:03:08.831Z,12.65
2022-09-26T07:05:57.612Z,12.26
2022-09-26T07:09:03.831Z,12.24
2022-09-26T07:12:14.251Z,12.15
2022-09-26T07:15:04.279Z,12.06
2022-09-26T07:17:53.553Z,12.23
2022-09-26T07:20:46.490Z,12.81
2022-09-26T07:23:35.213Z,13.02
2022-09-26T07:26:23.606Z,13.26
2022-09-26T07:29:13.463Z,13.63
2022-09-26T07:32:02.116Z,13.88
2022-09-26T07:34:51.519Z,14.23
2022-09-26T07:37:39.964Z,14.51
2022-09-26T07:40:28.692Z,14.73
2022-09-26T07:43:22.408Z,15.18
2022-09-26T07:46:38.022Z,15.59
2022-09-26T07:49:43.935Z,15.84
2022-09-26T07:52:32.379Z,16.14
2022-09-26T07:55:22.633Z,16.38
2022-09-26T07:58:11.044Z,16.57
2022-09-26T08:00:59.570Z,16.70
2022-09-26T08:03:49.511Z,16.90
2022-09-26T08:06:38.067Z,17.08
2022-09-26T08:09:26.609Z,17.25
2022-09-26T08:12:15.589Z,17.20
2022-09-26T08:15:06.154Z,17.37
2022-09-26T08:17:55.056Z,17.49
2022-09-26T08:20:47.189Z,17.53
2022-09-26T08:23:35.782Z,17.65
2022-09-26T08:26:24.240Z,17.85
2022-09-26T08:29:12.976Z,18.03
2022-09-26T08:32:02.170Z,18.00
2022-09-26T08:34:52.544Z,18.13
2022-09-26T08:37:42.328Z,18.18
2022-09-26T08:40:36.626Z,18.19
2022-09-26T08:43:38.055Z,18.24
2022-09-26T08:46:46.690Z,17.99
2022-09-26T08:49:59.733Z,17.96
2022-09-26T08:52:51.986Z,18.00
2022-09-26T08:55:43.047Z,18.05
2022-09-26T08:58:38.714Z,18.34
2022-09-26T09:01:29.725Z,18.45
2022-09-26T09:04:22.186Z,18.66
2022-09-26T09:07:17.284Z,18.78
2022-09-26T09:10:11.280Z,18.64
2022-09-26T09:13:05.828Z,18.70
2022-09-26T09:16:05.925Z,18.62
2022-09-26T09:18:59.847Z,18.17
2022-09-26T09:22:00.236Z,19.13
2022-09-26T09:24:54.852Z,19.03
2022-09-26T09:27:54.911Z,18.88
2022-09-26T09:30:46.984Z,18.45
2022-09-26T09:33:39.011Z,18.48
2022-09-26T09:36:30.361Z,18.03
2022-09-26T09:39:24.883Z,17.93
2022-09-26T09:42:18.151Z,17.94
2022-09-26T09:45:15.495Z,17.59
2022-09-26T09:48:04.875Z,17.32
2022-09-26T09:51:02.203Z,17.16
2022-09-26T09:54:28.095Z,17.19
2022-09-26T09:57:25.331Z,17.14
2022-09-26T10:00:17.090Z,17.25
2022-09-26T10:03:13.901Z,17.91
2022-09-26T10:06:02.675Z,17.79
2022-09-26T10:08:51.835Z,17.54
2022-09-26T10:11:42.719Z,17.53
2022-09-26T10:14:35.311Z,17.24
2022-09-26T10:17:25.490Z,17.90
2022-09-26T10:20:39.941Z,17.71
2022-09-26T10:23:32.739Z,17.52
2022-09-26T10:26:30.508Z,16.94
2022-09-26T10:29:24.834Z,17.11
2022-09-26T10:32:13.883Z,16.85
2022-09-26T10:35:08.737Z,16.58
2022-09-26T10:38:02.521Z,16.11
2022-09-26T10:40:53.237Z,16.03
2022-09-26T10:43:53.475Z,15.84
2022-09-26T10:46:45.164Z,15.78
2022-09-26T10:49:39.860Z,15.68
2022-09-26T10:52:34.550Z,15.69
2022-09-26T10:55:26.121Z,15.54
2022-09-26T10:58:18.155Z,15.40
2022-09-26T11:01:07.122Z,15.41
2022-09-26T11:03:57.374Z,15.41
2022-09-26T11:06:46.953Z,15.46
2022-09-26T11:09:38.284Z,15.44
2022-09-26T11:12:29.057Z,15.52
2022-09-26T11:15:17.576Z,15.69
2022-09-26T11:18:06.433Z,15.89
2022-09-26T11:20:58.494Z,16.21
2022-09-26T11:23:53.707Z,16.49
2022-09-26T11:26:51.161Z,16.57
2022-09-26T11:29:44.500Z,16.11
2022-09-26T11:32:41.394Z,16.14
2022-09-26T11:35:43.956Z,15.93
2022-09-26T11:38:39.314Z,15.48
2022-09-26T11:41:39.299Z,15.14
2022-09-26T11:44:49.957Z,14.93
2022-09-26T11:48:10.925Z,14.66
2022-09-26T11:51:04.208Z,14.48
2022-09-26T11:54:24.762Z,14.41
2022-09-26T11:57:36.443Z,14.17
2022-09-26T12:00:30.300Z,13.95
2022-09-26T12:03:36.044Z,13.96
2022-09-26T12:06:33.285Z,13.80
2022-09-26T12:09:42.145Z,13.79
2022-09-26T12:12:40.384Z,13.79
2022-09-26T12:15:36.532Z,14.02
2022-09-26T12:18:33.924Z,14.07
2022-09-26T12:21:29.776Z,13.99
2022-09-26T12:24:24.143Z,14.15
2022-09-26T12:27:18.991Z,14.15
2022-09-26T12:30:11.122Z,14.12
2022-09-26T12:33:32.890Z,14.50
2022-09-26T12:36:31.187Z,14.60
2022-09-26T12:39:30.662Z,14.52
2022-09-26T12:42:34.857Z,14.36
2022-09-26T12:45:53.185Z,14.35
2022-09-26T12:48:54.023Z,14.28
2022-09-26T12:51:47.111Z,14.01
2022-09-26T12:54:55.739Z,14.30
2022-09-26T12:57:58.556Z,14.29
2022-09-26T13:00:54.211Z,14.33
2022-09-26T13:04:02.287Z,14.30
2022-09-26T13:07:20.747Z,14.14
2022-09-26T13:10:29.702Z,14.26
2022-09-26T13:13:45.967Z,14.34
2022-09-26T13:16:42.700Z,14.39
2022-09-26T13:19:34.789Z,14.46
2022-09-26T13:22:31.632Z,14.41
2022-09-26T13:25:22.759Z,14.53
2022-09-26T13:28:13.602Z,14.70
2022-09-26T13:31:06.611Z,14.64
2022-09-26T13:34:03.292Z,15.08
2022-09-26T13:36:54.306Z,15.32
2022-09-26T13:39:50.758Z,15.54
2022-09-26T13:42:43.849Z,15.56
2022-09-26T13:45:46.301Z,15.68
2022-09-26T13:48:42.091Z,15.75
2022-09-26T13:51:40.253Z,15.73
2022-09-26T13:54:32.254Z,15.86
2022-09-26T13:57:34.377Z,16.00
2022-09-26T14:00:49.140Z,16.08
2022-09-26T14:03:43.090Z,15.99
2022-09-26T14:06:34.836Z,16.00
2022-09-26T14:09:28.510Z,16.10
2022-09-26T14:12:33.550Z,16.24
2022-09-26T14:15:24.420Z,16.41
2022-09-26T14:18:24.986Z,16.66
2022-09-26T14:21:36.106Z,16.83
2022-09-26T14:24:36.831Z,16.60
2022-09-26T14:27:29.204Z,16.61
2022-09-26T14:30:27.087Z,16.48
2022-09-26T14:33:17.714Z,16.34
2022-09-26T14:36:25.066Z,16.31
2022-09-26T14:39:25.986Z,16.17
2022-09-26T14:42:22.770Z,16.10
2022-09-26T14:45:22.957Z,16.01
2022-09-26T14:48:16.999Z,16.03
2022-09-26T14:51:08.328Z,15.94
2022-09-26T14:54:00.357Z,15.83
2022-09-26T14:56:50.287Z,15.58
2022-09-26T14:59:45.319Z,15.73
2022-09-26T15:02:40.585Z,15.72
2022-09-26T15:05:29.309Z,15.67
2022-09-26T15:08:26.044Z,15.59
2022-09-26T15:11:26.557Z,15.59
2022-09-26T15:14:22.966Z,15.42
2022-09-26T15:17:16.788Z,15.59
2022-09-26T15:20:09.537Z,15.34
2022-09-26T15:22:58.273Z,15.55
2022-09-26T15:25:46.920Z,15.58
2022-09-26T15:28:38.792Z,15.58
2022-09-26T15:31:38.638Z,15.73
2022-09-26T15:34:33.562Z,15.84
2022-09-26T15:37:25.625Z,15.96
2022-09-26T15:40:18.431Z,15.88
2022-09-26T15:43:11.545Z,15.90
2022-09-26T15:46:03.558Z,15.78
2022-09-26T15:48:56.978Z,15.71
2022-09-26T15:51:45.838Z,15.79
2022-09-26T15:54:35.818Z,15.77
2022-09-26T15:57:24.427Z,15.69
2022-09-26T16:00:14.733Z,15.74
2022-09-26T16:03:21.587Z,15.00
2022-09-26T16:06:24.942Z,15.53
2022-09-26T16:09:19.787Z,15.62
2022-09-26T16:12:19.297Z,15.43
2022-09-26T16:15:17.029Z,15.27
2022-09-26T16:18:05.726Z,15.44
2022-09-26T16:21:15.781Z,15.42
2022-09-26T16:24:23.337Z,15.35
2022-09-26T16:27:23.865Z,15.30
2022-09-26T16:30:37.615Z,15.28
2022-09-26T16:33:31.501Z,15.29
2022-09-26T16:36:21.673Z,15.26
2022-09-26T16:39:21.081Z,15.30
2022-09-26T16:42:16.307Z,15.30
2022-09-26T16:45:07.375Z,15.31
2022-09-26T16:47:55.955Z,15.34
2022-09-26T16:50:44.536Z,15.13
2022-09-26T16:53:33.129Z,15.20
2022-09-26T16:56:23.433Z,15.19
2022-09-26T16:59:17.677Z,15.13
2022-09-26T17:02:09.778Z,15.13
2022-09-26T17:04:58.483Z,15.12
2022-09-26T17:07:50.568Z,15.11
2022-09-26T17:10:39.578Z,15.08
2022-09-26T17:13:29.536Z,15.09
2022-09-26T17:16:18.253Z,15.15
2022-09-26T17:19:11.270Z,15.18
2022-09-26T17:22:00.661Z,15.06
2022-09-26T17:24:50.231Z,15.21
2022-09-26T17:27:40.449Z,15.12
2022-09-26T17:30:29.097Z,15.16
2022-09-26T17:33:17.716Z,15.09
2022-09-26T17:36:10.863Z,15.09
2022-09-26T17:39:00.972Z,14.77
2022-09-26T17:41:51.292Z,15.00
2022-09-26T17:44:41.496Z,15.12
2022-09-26T17:47:30.130Z,15.18
2022-09-26T17:50:22.180Z,15.15
2022-09-26T17:53:20.792Z,15.05
2022-09-26T17:56:12.677Z,15.13
2022-09-26T17:59:01.998Z,14.94
2022-09-26T18:01:56.707Z,15.26
2022-09-26T18:04:45.315Z,15.33
2022-09-26T18:07:36.415Z,15.30
2022-09-26T18:10:30.290Z,15.25
2022-09-26T18:13:26.043Z,15.15
2022-09-26T18:16:14.972Z,15.38
2022-09-26T18:19:07.574Z,15.43
2022-09-26T18:21:58.645Z,15.54
2022-09-26T18:24:48.237Z,15.67
2022-09-26T18:27:40.465Z,15.69
2022-09-26T18:30:29.012Z,15.69
2022-09-26T18:33:19.539Z,15.59
2022-09-26T18:36:11.380Z,15.56
2022-09-26T18:39:00.032Z,15.47
2022-09-26T18:41:50.115Z,15.32
2022-09-26T18:44:43.051Z,15.34
2022-09-26T18:47:34.429Z,15.12
2022-09-26T18:50:33.060Z,15.42
2022-09-26T18:53:23.185Z,15.39
2022-09-26T18:56:30.053Z,15.29
2022-09-26T18:59:18.574Z,15.21
2022-09-26T19:02:20.690Z,15.04
2022-09-26T19:05:12.870Z,15.04
2022-09-26T19:08:02.106Z,14.89
2022-09-26T19:10:50.694Z,14.74
2022-09-26T19:13:39.292Z,14.62
2022-09-26T19:16:27.842Z,14.52
2022-09-26T19:19:18.335Z,14.38
2022-09-26T19:22:10.239Z,14.35
2022-09-26T19:25:01.750Z,14.05
2022-09-26T19:27:52.824Z,14.07
2022-09-26T19:30:41.461Z,14.01
2022-09-26T19:33:30.284Z,13.91
2022-09-26T19:36:20.833Z,13.90
2022-09-26T19:39:11.414Z,13.73
2022-09-26T19:42:00.056Z,13.71
2022-09-26T19:44:49.395Z,13.56
2022-09-26T19:47:39.130Z,13.51
2022-09-26T19:50:28.007Z,13.43
2022-09-26T19:53:19.205Z,13.30
2022-09-26T19:56:08.138Z,13.24
2022-09-26T19:58:57.727Z,13.11
2022-09-26T20:01:47.451Z,13.16
2022-09-26T20:04:36.302Z,13.08
2022-09-26T20:07:24.939Z,13.09
2022-09-26T20:10:16.942Z,13.00
2022-09-26T20:13:05.504Z,13.00
2022-09-26T20:15:54.535Z,12.99
2022-09-26T20:18:43.232Z,12.95
2022-09-26T20:21:32.045Z,12.87
2022-09-26T20:24:20.672Z,12.88
2022-09-26T20:27:16.111Z,12.88
2022-09-26T20:30:25.365Z,12.95
2022-09-26T20:33:14.320Z,12.97
2022-09-26T20:36:04.760Z,12.83
2022-09-26T20:38:55.514Z,12.85
2022-09-26T20:41:44.652Z,12.78
2022-09-26T20:44:34.788Z,12.80
2022-09-26T20:47:23.491Z,12.77
2022-09-26T20:50:16.085Z,12.85
2022-09-26T20:53:04.982Z,12.80
2022-09-26T20:55:55.047Z,12.79
2022-09-26T20:58:44.179Z,12.49
2022-09-26T21:01:34.219Z,12.74
2022-09-26T21:04:25.793Z,12.68
2022-09-26T21:07:16.316Z,12.69
2022-09-26T21:10:21.847Z,12.75
2022-09-26T21:13:10.712Z,12.82
2022-09-26T21:15:59.252Z,12.75
2022-09-26T21:18:51.463Z,12.73
2022-09-26T21:21:40.801Z,12.65
2022-09-26T21:24:31.446Z,12.71
2022-09-26T21:27:19.976Z,12.67
2022-09-26T21:30:13.972Z,12.64
2022-09-26T21:33:02.541Z,12.70
2022-09-26T21:35:52.703Z,12.73
2022-09-26T21:38:41.272Z,12.71
2022-09-26T21:41:29.920Z,12.63
2022-09-26T21:44:22.821Z,12.68
2022-09-26T21:47:11.651Z,12.57
2022-09-26T21:50:00.228Z,12.58
2022-09-26T21:52:52.341Z,12.56
2022-09-26T21:55:44.368Z,12.47
2022-09-26T21:58:36.022Z,12.34
2022-09-26T22:01:24.585Z,12.35
2022-09-26T22:04:13.802Z,12.35
2022-09-26T22:07:02.394Z,12.23
2022-09-26T22:09:52.518Z,12.08
2022-09-26T22:12:41.211Z,12.01
2022-09-26T22:15:29.763Z,11.98
2022-09-26T22:18:18.332Z,11.88
2022-09-26T22:21:07.444Z,11.62
2022-09-26T22:23:55.979Z,11.79
2022-09-26T22:26:46.098Z,11.74
2022-09-26T22:29:34.676Z,11.66
2022-09-26T22:32:23.292Z,11.64
2022-09-26T22:35:11.828Z,11.63
2022-09-26T22:38:00.412Z,11.58
2022-09-26T22:40:56.968Z,11.52
2022-09-26T22:43:49.095Z,11.49
2022-09-26T22:46:38.318Z,11.53
2022-09-26T22:49:26.906Z,11.40
2022-09-26T22:52:15.466Z,11.48
2022-09-26T22:55:04.272Z,11.47
2022-09-26T22:57:52.820Z,11.47
2022-09-26T23:00:43.076Z,11.57
2022-09-26T23:03:33.151Z,11.49
2022-09-26T23:06:22.463Z,11.44
2022-09-26T23:09:11.003Z,11.42
2022-09-26T23:12:02.873Z,11.53
2022-09-26T23:14:51.406Z,11.44
2022-09-26T23:17:41.328Z,11.46
2022-09-26T23:20:29.868Z,11.39
2022-09-26T23:23:18.402Z,11.43
2022-09-26T23:26:07.828Z,11.40
2022-09-26T23:28:58.056Z,11.45
2022-09-26T23:31:46.699Z,11.31
2022-09-26T23:34:36.610Z,11.39
2022-09-26T23:37:25.148Z,11.36
2022-09-26T23:40:13.780Z,11.41
2022-09-26T23:43:02.479Z,11.45
2022-09-26T23:45:51.299Z,11.56
2022-09-26T23:48:40.340Z,11.50
2022-09-26T23:51:30.279Z,11.47
2022-09-26T23:54:18.821Z,11.49
2022-09-26T23:57:07.365Z,11.45
2022-09-26T23:59:55.905Z,11.45
